Struthers, Ohio
Current Conditions -  °F | °C
As of 10:51 AM on Thursday 30 Oct 2014 (Local Time) from KYNG Reporting Station
Overcast Overcast  
Wind Chill: 43°   Ceiling: 1000
Heat Index: 46°   Visibility: 10mi
Dew Point: 40°   Wind: 6mph
Humidity: 79%   Direction: 310°NW
Pressure: 30.1"   Gusts: NA
Location:  41.05°N, 80.59°W
Report Text: KYNG 301451Z 31005KT 10SM BKN010 BKN020 OVC048 08/04 A3010 RMK AO2 SLP199 60000 T00780044 50008 $
Loading
Personal Weather Stations






























Interactive Weather Map
Tropical Storm Tracking
New forecast layout! Learn more

10-Day Weather Forecast

Advertisements
Track Severe Weather on mobile